createdAt,value
2022-10-15T00:00:33.097Z,14.62
2022-10-15T00:01:35.691Z,14.62
2022-10-15T00:02:33.119Z,14.68
2022-10-15T00:03:33.255Z,14.58
2022-10-15T00:04:33.085Z,14.62
2022-10-15T00:05:33.116Z,14.59
2022-10-15T00:06:33.227Z,14.66
2022-10-15T00:07:33.081Z,14.68
2022-10-15T00:08:33.245Z,14.66
2022-10-15T00:09:33.033Z,14.63
2022-10-15T00:10:33.013Z,14.63
2022-10-15T00:11:33.016Z,14.59
2022-10-15T00:12:33.017Z,14.55
2022-10-15T00:13:33.004Z,14.58
2022-10-15T00:14:32.961Z,14.55
2022-10-15T00:15:33.026Z,14.65
2022-10-15T00:16:33.191Z,14.68
2022-10-15T00:17:33.004Z,14.69
2022-10-15T00:18:33.010Z,14.62
2022-10-15T00:19:34.390Z,14.59
2022-10-15T00:20:32.964Z,14.62
2022-10-15T00:21:33.447Z,14.55
2022-10-15T00:22:32.961Z,14.55
2022-10-15T00:23:32.955Z,14.55
2022-10-15T00:24:32.930Z,14.55
2022-10-15T00:25:32.936Z,14.53
2022-10-15T00:26:33.038Z,14.62
2022-10-15T00:27:32.886Z,14.58
2022-10-15T00:28:34.369Z,14.59
2022-10-15T00:29:32.926Z,14.60
2022-10-15T00:30:32.871Z,14.58
2022-10-15T00:31:33.903Z,14.55
2022-10-15T00:32:32.887Z,14.59
2022-10-15T00:33:32.916Z,14.62
2022-10-15T00:34:32.853Z,14.62
2022-10-15T00:35:32.848Z,14.60
2022-10-15T00:36:32.889Z,14.58
2022-10-15T00:37:32.842Z,14.60
2022-10-15T00:38:32.785Z,14.55
2022-10-15T00:39:33.000Z,14.59
2022-10-15T00:40:32.811Z,14.47
2022-10-15T00:41:32.866Z,14.65
2022-10-15T00:42:32.919Z,14.45
2022-10-15T00:43:32.784Z,14.50
2022-10-15T00:44:32.779Z,14.53
2022-10-15T00:45:32.768Z,14.47
2022-10-15T00:46:32.968Z,14.48
2022-10-15T00:47:32.738Z,14.58
2022-10-15T00:48:33.058Z,14.47
2022-10-15T00:49:32.790Z,14.60
2022-10-15T00:50:32.710Z,14.55
2022-10-15T00:51:32.750Z,14.63
2022-10-15T00:52:32.790Z,14.63
2022-10-15T00:53:32.726Z,14.65
2022-10-15T00:54:32.735Z,14.66
2022-10-15T00:55:32.893Z,14.65
2022-10-15T00:56:32.791Z,14.65
2022-10-15T00:57:32.677Z,14.66
2022-10-15T00:58:32.651Z,14.63
2022-10-15T00:59:32.671Z,14.65
2022-10-15T01:00:32.674Z,14.68
2022-10-15T01:01:32.712Z,14.68
2022-10-15T01:02:32.676Z,14.68
2022-10-15T01:03:32.628Z,14.69
2022-10-15T01:04:32.619Z,14.62
2022-10-15T01:05:32.790Z,14.60
2022-10-15T01:06:32.599Z,14.65
2022-10-15T01:07:32.605Z,14.59
2022-10-15T01:08:32.577Z,14.55
2022-10-15T01:09:32.626Z,14.58
2022-10-15T01:10:32.654Z,14.59
2022-10-15T01:11:32.611Z,14.65
2022-10-15T01:12:32.573Z,14.59
2022-10-15T01:13:32.615Z,14.62
2022-10-15T01:14:32.576Z,14.63
2022-10-15T01:15:32.538Z,14.58
2022-10-15T01:16:32.534Z,14.65
2022-10-15T01:17:32.547Z,14.65
2022-10-15T01:18:32.513Z,14.47
2022-10-15T01:19:32.518Z,14.53
2022-10-15T01:20:32.513Z,14.58
2022-10-15T01:21:32.527Z,14.48
2022-10-15T01:22:32.522Z,14.50
2022-10-15T01:23:32.495Z,14.45
2022-10-15T01:24:32.489Z,14.47
2022-10-15T01:25:32.500Z,14.41
2022-10-15T01:26:32.488Z,14.43
2022-10-15T01:27:32.495Z,14.45
2022-10-15T01:28:32.521Z,14.44
2022-10-15T01:29:32.440Z,14.43
2022-10-15T01:30:32.414Z,14.40
2022-10-15T01:31:32.437Z,14.41
2022-10-15T01:32:32.417Z,14.37
2022-10-15T01:33:32.451Z,14.45
2022-10-15T01:34:32.414Z,14.45
2022-10-15T01:35:32.414Z,14.40
2022-10-15T01:36:32.400Z,14.43
2022-10-15T01:37:32.598Z,14.37
2022-10-15T01:38:32.609Z,14.43
2022-10-15T01:39:32.389Z,14.35
2022-10-15T01:40:32.389Z,14.43
2022-10-15T01:41:32.397Z,14.37
2022-10-15T01:42:32.373Z,14.43
2022-10-15T01:43:32.411Z,14.40
2022-10-15T01:44:32.318Z,14.30
2022-10-15T01:45:32.330Z,14.36
2022-10-15T01:46:32.346Z,14.32
2022-10-15T01:47:32.339Z,14.35
2022-10-15T01:48:32.545Z,14.43
2022-10-15T01:49:32.285Z,14.37
2022-10-15T01:50:32.319Z,14.37
2022-10-15T01:51:32.324Z,14.37
2022-10-15T01:52:32.538Z,14.41
2022-10-15T01:53:32.286Z,14.43
2022-10-15T01:54:32.281Z,14.36
2022-10-15T01:55:32.280Z,14.43
2022-10-15T01:56:32.239Z,14.43
2022-10-15T01:57:32.252Z,14.37
2022-10-15T01:58:32.275Z,14.41
2022-10-15T01:59:32.470Z,14.43
2022-10-15T02:00:32.204Z,14.37
2022-10-15T02:01:32.643Z,14.40
2022-10-15T02:02:32.235Z,14.43
2022-10-15T02:03:32.430Z,14.44
2022-10-15T02:04:32.254Z,14.40
2022-10-15T02:05:32.195Z,14.44
2022-10-15T02:06:32.261Z,14.41
2022-10-15T02:07:32.205Z,14.47
2022-10-15T02:08:32.205Z,14.47
2022-10-15T02:09:32.198Z,14.62
2022-10-15T02:10:32.182Z,14.50
2022-10-15T02:11:32.219Z,14.58
2022-10-15T02:12:32.154Z,14.55
2022-10-15T02:13:32.183Z,14.48
2022-10-15T02:14:32.142Z,14.58
2022-10-15T02:15:32.163Z,14.58
2022-10-15T02:16:32.087Z,14.50
2022-10-15T02:17:32.110Z,14.51
2022-10-15T02:18:32.112Z,14.48
2022-10-15T02:19:32.131Z,14.50
2022-10-15T02:20:32.106Z,14.48
2022-10-15T02:21:32.271Z,14.44
2022-10-15T02:22:32.076Z,14.47
2022-10-15T02:23:32.116Z,14.45
2022-10-15T02:24:32.323Z,14.45
2022-10-15T02:25:32.209Z,14.45
2022-10-15T02:26:32.072Z,14.44
2022-10-15T02:27:32.069Z,14.50
2022-10-15T02:28:32.157Z,14.48
2022-10-15T02:29:32.094Z,14.43
2022-10-15T02:30:32.058Z,14.44
2022-10-15T02:31:32.022Z,14.41
2022-10-15T02:32:32.037Z,14.48
2022-10-15T02:33:31.997Z,14.40
2022-10-15T02:34:31.995Z,14.45
2022-10-15T02:35:31.973Z,14.44
2022-10-15T02:36:31.987Z,14.44
2022-10-15T02:37:32.410Z,14.48
2022-10-15T02:38:31.970Z,14.43
2022-10-15T02:39:31.944Z,14.48
2022-10-15T02:40:31.975Z,14.45
2022-10-15T02:41:32.109Z,14.47
2022-10-15T02:42:31.956Z,14.48
2022-10-15T02:43:31.932Z,14.43
2022-10-15T02:44:31.886Z,14.48
2022-10-15T02:45:31.923Z,14.47
2022-10-15T02:46:32.002Z,14.48
2022-10-15T02:47:31.890Z,14.47
2022-10-15T02:48:31.900Z,14.43
2022-10-15T02:49:31.883Z,14.44
2022-10-15T02:50:31.853Z,14.47
2022-10-15T02:51:31.831Z,14.50
2022-10-15T02:52:31.891Z,14.50
2022-10-15T02:53:31.861Z,14.47
2022-10-15T02:54:31.839Z,14.47
2022-10-15T02:55:31.900Z,14.47
2022-10-15T02:56:31.839Z,14.47
2022-10-15T02:57:31.934Z,14.41
2022-10-15T02:58:31.793Z,14.37
2022-10-15T02:59:31.860Z,14.41
2022-10-15T03:00:31.821Z,14.45
2022-10-15T03:01:31.873Z,14.43
2022-10-15T03:02:31.792Z,14.37
2022-10-15T03:03:31.785Z,14.43
2022-10-15T03:04:31.829Z,14.41
2022-10-15T03:05:31.788Z,14.41
2022-10-15T03:06:31.787Z,14.41
2022-10-15T03:07:31.760Z,14.41
2022-10-15T03:08:31.819Z,14.30
2022-10-15T03:09:31.711Z,14.43
2022-10-15T03:10:31.725Z,14.45
2022-10-15T03:11:31.746Z,14.43
2022-10-15T03:12:31.709Z,14.41
2022-10-15T03:13:31.728Z,14.43
2022-10-15T03:14:31.979Z,14.45
2022-10-15T03:15:31.865Z,14.33
2022-10-15T03:16:31.679Z,14.44
2022-10-15T03:17:31.692Z,14.43
2022-10-15T03:18:32.143Z,14.40
2022-10-15T03:19:31.835Z,14.45
2022-10-15T03:20:31.635Z,14.48
2022-10-15T03:21:31.626Z,14.36
2022-10-15T03:22:31.635Z,14.43
2022-10-15T03:24:31.610Z,14.44
2022-10-15T03:25:31.605Z,14.40
2022-10-15T03:26:31.599Z,14.37
2022-10-15T03:27:31.589Z,14.48
2022-10-15T03:28:31.674Z,14.40
2022-10-15T03:29:31.602Z,14.45
2022-10-15T03:30:31.567Z,14.44
2022-10-15T03:31:31.560Z,14.44
2022-10-15T03:32:33.133Z,14.48
2022-10-15T03:33:31.545Z,14.37
2022-10-15T03:34:31.530Z,14.35
2022-10-15T03:35:31.529Z,14.36
2022-10-15T03:36:31.546Z,14.41
2022-10-15T03:37:31.512Z,14.35
2022-10-15T03:38:31.495Z,14.40
2022-10-15T03:39:31.501Z,14.36
2022-10-15T03:40:31.687Z,14.41
2022-10-15T03:41:31.723Z,14.40
2022-10-15T03:42:31.481Z,14.41
2022-10-15T03:43:31.566Z,14.40
2022-10-15T03:44:31.476Z,14.41
2022-10-15T03:45:31.458Z,14.40
2022-10-15T03:46:31.448Z,14.40
2022-10-15T03:47:31.446Z,14.44
2022-10-15T03:48:31.441Z,14.37
2022-10-15T03:49:31.425Z,14.44
2022-10-15T03:50:31.517Z,14.37
2022-10-15T03:51:31.828Z,14.41
2022-10-15T03:52:31.401Z,14.45
2022-10-15T03:53:31.391Z,14.44
2022-10-15T03:54:31.381Z,14.44
2022-10-15T03:55:31.378Z,14.40
2022-10-15T03:56:31.368Z,14.43
2022-10-15T03:57:31.370Z,14.43
2022-10-15T03:58:31.393Z,14.44
2022-10-15T03:59:31.441Z,14.29
2022-10-15T04:00:31.353Z,14.28
2022-10-15T04:01:31.404Z,14.32
2022-10-15T04:02:31.548Z,14.40
2022-10-15T04:03:31.347Z,14.35
2022-10-15T04:04:31.517Z,14.30
2022-10-15T04:05:31.315Z,14.26
2022-10-15T04:06:31.305Z,14.28
2022-10-15T04:07:31.345Z,14.33
2022-10-15T04:08:31.521Z,14.33
2022-10-15T04:09:31.304Z,14.25
2022-10-15T04:10:31.297Z,14.23
2022-10-15T04:11:31.291Z,14.25
2022-10-15T04:12:31.325Z,14.25
2022-10-15T04:13:31.265Z,14.23
2022-10-15T04:14:31.254Z,14.12
2022-10-15T04:15:31.239Z,14.11
2022-10-15T04:16:31.265Z,14.17
2022-10-15T04:17:31.233Z,14.14
2022-10-15T04:18:31.442Z,14.18
2022-10-15T04:19:31.402Z,14.11
2022-10-15T04:20:31.218Z,14.05
2022-10-15T04:21:31.215Z,14.15
2022-10-15T04:22:31.291Z,14.07
2022-10-15T04:23:31.188Z,14.10
2022-10-15T04:24:31.174Z,14.05
2022-10-15T04:25:31.149Z,14.07
2022-10-15T04:26:31.164Z,14.05
2022-10-15T04:27:31.166Z,13.99
2022-10-15T04:28:31.257Z,14.00
2022-10-15T04:29:31.134Z,14.04
2022-10-15T04:30:31.130Z,14.07
2022-10-15T04:31:31.113Z,13.92
2022-10-15T04:32:31.112Z,14.10
2022-10-15T04:33:31.128Z,13.99
2022-10-15T04:34:31.094Z,13.95
2022-10-15T04:35:31.088Z,14.05
2022-10-15T04:36:31.089Z,13.97
2022-10-15T04:37:31.069Z,13.97
2022-10-15T04:38:31.070Z,14.00
2022-10-15T04:39:31.084Z,14.05
2022-10-15T04:40:31.056Z,14.03
2022-10-15T04:41:31.054Z,14.05
2022-10-15T04:42:31.060Z,13.96
2022-10-15T04:43:31.036Z,14.04
2022-10-15T04:44:31.022Z,14.05
2022-10-15T04:45:31.023Z,13.99
2022-10-15T04:46:31.219Z,13.99
2022-10-15T04:47:31.000Z,14.04
2022-10-15T04:48:30.990Z,14.03
2022-10-15T04:49:31.009Z,14.07
2022-10-15T04:50:30.981Z,13.93
2022-10-15T04:51:30.974Z,13.97
2022-10-15T04:52:30.969Z,13.87
2022-10-15T04:53:30.949Z,13.87
2022-10-15T04:54:30.952Z,13.87
2022-10-15T04:55:31.103Z,13.86
2022-10-15T04:56:30.941Z,13.86
2022-10-15T04:57:30.925Z,13.83
2022-10-15T04:58:30.913Z,13.87
2022-10-15T04:59:30.909Z,13.90
2022-10-15T05:00:31.050Z,13.81
2022-10-15T05:01:30.900Z,13.90
2022-10-15T05:02:30.970Z,13.85
2022-10-15T05:03:30.912Z,13.86
2022-10-15T05:04:30.881Z,13.78
2022-10-15T05:05:31.033Z,13.75
2022-10-15T05:06:31.062Z,13.78
2022-10-15T05:07:30.854Z,13.72
2022-10-15T05:08:30.841Z,13.78
2022-10-15T05:09:30.849Z,13.63
2022-10-15T05:10:31.206Z,13.68
2022-10-15T05:11:30.849Z,13.75
2022-10-15T05:12:30.849Z,13.63
2022-10-15T05:13:31.004Z,13.68
2022-10-15T05:14:30.807Z,13.59
2022-10-15T05:15:30.962Z,13.65
2022-10-15T05:16:30.791Z,13.62
2022-10-15T05:17:30.767Z,13.63
2022-10-15T05:18:30.783Z,13.70
2022-10-15T05:19:30.776Z,13.63
2022-10-15T05:20:30.932Z,13.62
2022-10-15T05:21:30.771Z,13.60
2022-10-15T05:22:30.740Z,13.62
2022-10-15T05:23:30.735Z,13.65
2022-10-15T05:24:30.735Z,13.68
2022-10-15T05:25:30.903Z,13.57
2022-10-15T05:26:30.707Z,13.74
2022-10-15T05:27:30.796Z,13.65
2022-10-15T05:28:30.730Z,13.72
2022-10-15T05:29:30.685Z,13.75
2022-10-15T05:30:30.826Z,13.70
2022-10-15T05:31:30.662Z,13.74
2022-10-15T05:32:30.681Z,13.78
2022-10-15T05:33:30.647Z,13.72
2022-10-15T05:34:30.744Z,13.72
2022-10-15T05:35:30.802Z,13.75
2022-10-15T05:36:30.628Z,13.72
2022-10-15T05:37:30.860Z,13.77
2022-10-15T05:38:30.617Z,13.72
2022-10-15T05:39:30.614Z,13.75
2022-10-15T05:40:30.946Z,13.72
2022-10-15T05:41:30.603Z,13.77
2022-10-15T05:42:30.616Z,13.74
2022-10-15T05:43:30.575Z,13.72
2022-10-15T05:44:30.566Z,13.71
2022-10-15T05:45:30.702Z,13.75
2022-10-15T05:46:30.569Z,13.77
2022-10-15T05:47:30.548Z,13.78
2022-10-15T05:48:30.544Z,13.74
2022-10-15T05:49:30.558Z,13.77
2022-10-15T05:50:30.673Z,13.77
2022-10-15T05:51:30.534Z,13.89
2022-10-15T05:52:30.513Z,13.89
2022-10-15T05:53:30.524Z,13.87
2022-10-15T05:54:30.484Z,13.85
2022-10-15T05:55:30.770Z,13.83
2022-10-15T05:56:30.494Z,13.92
2022-10-15T05:57:30.461Z,13.89
2022-10-15T05:58:33.377Z,13.89
2022-10-15T05:59:30.456Z,13.95
2022-10-15T06:00:30.592Z,13.96
2022-10-15T06:01:30.441Z,13.86
2022-10-15T06:02:30.663Z,13.87
2022-10-15T06:03:30.434Z,13.93
2022-10-15T06:04:33.245Z,13.99
2022-10-15T06:05:30.558Z,13.97
2022-10-15T06:06:30.401Z,13.90
2022-10-15T06:07:30.394Z,14.03
2022-10-15T06:08:30.431Z,13.99
2022-10-15T06:09:30.407Z,14.08
2022-10-15T06:10:30.514Z,14.08
2022-10-15T06:11:30.394Z,14.10
2022-10-15T06:12:30.356Z,14.10
2022-10-15T06:13:30.345Z,14.12
2022-10-15T06:14:30.348Z,14.10
2022-10-15T06:15:30.481Z,14.22
2022-10-15T06:16:30.324Z,14.17
2022-10-15T06:17:30.340Z,14.18
2022-10-15T06:18:30.316Z,14.26
2022-10-15T06:19:30.532Z,14.28
2022-10-15T06:20:30.464Z,14.26
2022-10-15T06:21:30.287Z,14.26
2022-10-15T06:22:30.347Z,14.36
2022-10-15T06:23:30.297Z,14.32
2022-10-15T06:24:30.270Z,14.32
2022-10-15T06:25:30.441Z,14.43
2022-10-15T06:26:30.454Z,14.45
2022-10-15T06:27:30.243Z,14.50
2022-10-15T06:28:30.289Z,14.54
2022-10-15T06:29:30.238Z,14.58
2022-10-15T06:30:30.385Z,14.47
2022-10-15T06:31:30.221Z,14.51
2022-10-15T06:32:30.253Z,14.55
2022-10-15T06:33:30.203Z,14.54
2022-10-15T06:34:30.212Z,14.60
2022-10-15T06:35:30.366Z,14.60
2022-10-15T06:36:30.178Z,14.58
2022-10-15T06:37:30.174Z,14.54
2022-10-15T06:38:30.162Z,14.55
2022-10-15T06:39:30.157Z,14.65
2022-10-15T06:40:30.354Z,14.59
2022-10-15T06:41:30.156Z,14.63
2022-10-15T06:42:30.141Z,14.58
2022-10-15T06:43:32.517Z,14.59
2022-10-15T06:44:30.164Z,14.55
2022-10-15T06:45:30.140Z,14.60
2022-10-15T06:46:30.135Z,14.58
2022-10-15T06:47:30.304Z,14.62
2022-10-15T06:48:30.237Z,14.66
2022-10-15T06:49:30.095Z,14.65
2022-10-15T06:50:30.252Z,14.55
2022-10-15T06:51:30.106Z,14.59
2022-10-15T06:52:30.062Z,14.65
2022-10-15T06:53:30.060Z,14.69
2022-10-15T06:54:30.058Z,14.58
2022-10-15T06:55:30.199Z,14.66
2022-10-15T06:56:30.079Z,14.63
2022-10-15T06:57:30.088Z,14.63
2022-10-15T06:58:30.058Z,14.72
2022-10-15T06:59:30.233Z,14.73
2022-10-15T07:00:30.206Z,14.78
2022-10-15T07:01:30.026Z,14.81
2022-10-15T07:02:30.032Z,14.85
2022-10-15T07:03:30.057Z,14.92
2022-10-15T07:04:30.036Z,14.94
2022-10-15T07:05:30.142Z,14.97
2022-10-15T07:06:30.026Z,15.11
2022-10-15T07:07:29.983Z,15.02
2022-10-15T07:08:29.998Z,15.06
2022-10-15T07:09:30.039Z,15.14
2022-10-15T07:10:30.204Z,15.03
2022-10-15T07:11:29.960Z,15.06
2022-10-15T07:12:29.990Z,15.06
2022-10-15T07:13:29.959Z,15.11
2022-10-15T07:14:29.915Z,15.15
2022-10-15T07:15:30.074Z,15.15
2022-10-15T07:16:29.899Z,15.19
2022-10-15T07:17:29.896Z,15.25
2022-10-15T07:18:29.911Z,15.31
2022-10-15T07:19:29.872Z,15.44
2022-10-15T07:20:30.054Z,15.39
2022-10-15T07:21:29.878Z,15.42
2022-10-15T07:22:30.057Z,15.40
2022-10-15T07:23:29.925Z,15.55
2022-10-15T07:24:29.858Z,15.47
2022-10-15T07:25:29.986Z,15.42
2022-10-15T07:26:29.858Z,15.39
2022-10-15T07:27:29.859Z,15.46
2022-10-15T07:28:29.919Z,15.43
2022-10-15T07:29:29.872Z,15.49
2022-10-15T07:30:29.987Z,15.54
2022-10-15T07:31:30.137Z,15.51
2022-10-15T07:32:30.016Z,15.44
2022-10-15T07:33:29.970Z,15.44
2022-10-15T07:34:29.791Z,15.44
2022-10-15T07:35:29.916Z,15.57
2022-10-15T07:36:29.782Z,15.49
2022-10-15T07:37:29.758Z,15.40
2022-10-15T07:38:29.748Z,15.46
2022-10-15T07:39:30.045Z,15.42
2022-10-15T07:40:30.292Z,15.42
2022-10-15T07:41:30.134Z,15.44
2022-10-15T07:42:29.922Z,15.54
2022-10-15T07:43:29.715Z,15.51
2022-10-15T07:44:29.728Z,15.43
2022-10-15T07:46:29.729Z,15.47
2022-10-15T07:47:29.912Z,15.46
2022-10-15T07:48:29.937Z,15.39
2022-10-15T07:49:29.679Z,15.31
2022-10-15T07:50:32.375Z,15.33
2022-10-15T07:51:29.659Z,15.37
2022-10-15T07:52:29.874Z,15.33
2022-10-15T07:53:29.648Z,15.43
2022-10-15T07:54:29.664Z,15.40
2022-10-15T07:55:29.774Z,15.49
2022-10-15T07:56:29.646Z,15.47
2022-10-15T07:57:29.630Z,15.59
2022-10-15T07:58:29.657Z,15.61
2022-10-15T07:59:29.611Z,15.73
2022-10-15T08:00:30.037Z,15.61
2022-10-15T08:01:29.598Z,15.65
2022-10-15T08:02:29.671Z,15.80
2022-10-15T08:03:29.595Z,15.92
2022-10-15T08:04:29.571Z,15.97
2022-10-15T08:05:29.718Z,16.01
2022-10-15T08:06:29.571Z,16.13
2022-10-15T08:07:29.677Z,16.28
2022-10-15T08:08:29.576Z,16.47
2022-10-15T08:09:29.549Z,16.61
2022-10-15T08:10:29.654Z,16.60
2022-10-15T08:11:29.528Z,16.74
2022-10-15T08:12:29.547Z,16.71
2022-10-15T08:13:29.516Z,16.84
2022-10-15T08:14:29.533Z,16.83
2022-10-15T08:15:29.670Z,16.75
2022-10-15T08:16:29.513Z,16.83
2022-10-15T08:17:29.499Z,16.69
2022-10-15T08:18:29.519Z,16.54
2022-10-15T08:19:29.498Z,16.58
2022-10-15T08:20:29.655Z,16.56
2022-10-15T08:21:29.488Z,16.43
2022-10-15T08:22:29.468Z,16.42
2022-10-15T08:23:29.483Z,16.46
2022-10-15T08:24:29.466Z,16.47
2022-10-15T08:25:29.612Z,16.47
2022-10-15T08:26:29.451Z,16.57
2022-10-15T08:27:29.438Z,16.56
2022-10-15T08:28:29.557Z,16.68
2022-10-15T08:29:29.431Z,16.65
2022-10-15T08:30:29.580Z,16.56
2022-10-15T08:31:29.400Z,16.56
2022-10-15T08:32:29.406Z,16.46
2022-10-15T08:33:29.400Z,16.49
2022-10-15T08:34:29.420Z,16.50
2022-10-15T08:35:29.549Z,16.49
2022-10-15T08:36:29.389Z,16.53
2022-10-15T08:37:29.378Z,16.51
2022-10-15T08:38:29.369Z,16.46
2022-10-15T08:39:29.368Z,16.47
2022-10-15T08:40:29.498Z,16.50
2022-10-15T08:41:29.371Z,16.60
2022-10-15T08:42:29.336Z,16.56
2022-10-15T08:43:29.529Z,16.69
2022-10-15T08:44:29.323Z,16.69
2022-10-15T08:45:29.502Z,16.65
2022-10-15T08:46:29.369Z,16.72
2022-10-15T08:47:29.304Z,16.60
2022-10-15T08:48:29.300Z,16.57
2022-10-15T08:49:29.294Z,16.58
2022-10-15T08:50:29.483Z,16.56
2022-10-15T08:51:29.281Z,16.68
2022-10-15T08:52:29.491Z,16.68
2022-10-15T08:53:29.274Z,16.76
2022-10-15T08:54:29.262Z,16.84
2022-10-15T08:55:29.431Z,16.99
2022-10-15T08:56:29.245Z,17.09
2022-10-15T08:57:29.269Z,17.11
2022-10-15T08:58:29.264Z,17.16
2022-10-15T08:59:29.223Z,17.30
2022-10-15T09:00:29.310Z,17.33
2022-10-15T09:01:29.434Z,17.42
2022-10-15T09:02:29.214Z,17.38
2022-10-15T09:03:29.214Z,17.44
2022-10-15T09:04:29.407Z,17.46
2022-10-15T09:05:29.364Z,17.38
2022-10-15T09:06:29.204Z,17.39
2022-10-15T09:07:29.183Z,17.42
2022-10-15T09:08:29.198Z,17.41
2022-10-15T09:09:29.367Z,17.48
2022-10-15T09:10:29.310Z,17.56
2022-10-15T09:11:29.181Z,17.79
2022-10-15T09:12:29.189Z,18.00
2022-10-15T09:13:29.185Z,18.10
2022-10-15T09:14:29.147Z,18.18
2022-10-15T09:15:29.133Z,18.29
2022-10-15T09:16:29.123Z,18.29
2022-10-15T09:17:29.143Z,18.47
2022-10-15T09:18:29.129Z,18.60
2022-10-15T09:19:29.124Z,18.80
2022-10-15T09:20:29.107Z,18.86
2022-10-15T09:21:29.106Z,18.93
2022-10-15T09:22:29.135Z,19.29
2022-10-15T09:23:29.103Z,19.45
2022-10-15T09:24:29.083Z,19.79
2022-10-15T09:25:31.931Z,19.71
2022-10-15T09:27:29.081Z,19.92
2022-10-15T09:28:29.142Z,19.92
2022-10-15T09:29:29.090Z,19.73
2022-10-15T09:30:29.224Z,19.49
2022-10-15T09:31:29.059Z,19.36
2022-10-15T09:32:29.077Z,19.24
2022-10-15T09:33:29.048Z,18.86
2022-10-15T09:34:29.097Z,18.88
2022-10-15T09:35:29.192Z,19.22
2022-10-15T09:36:29.117Z,19.55
2022-10-15T09:37:29.031Z,19.66
2022-10-15T09:38:29.063Z,19.76
2022-10-15T09:39:29.035Z,19.77
2022-10-15T09:40:29.217Z,19.73
2022-10-15T09:41:29.023Z,19.74
2022-10-15T09:42:29.228Z,19.71
2022-10-15T09:43:29.051Z,19.81
2022-10-15T09:44:29.022Z,19.73
2022-10-15T09:45:29.011Z,19.76
2022-10-15T09:46:29.242Z,19.69
2022-10-15T09:47:29.015Z,19.55
2022-10-15T09:48:28.997Z,19.64
2022-10-15T09:49:33.831Z,19.66
2022-10-15T09:50:28.989Z,19.74
2022-10-15T09:51:28.977Z,19.76
2022-10-15T09:52:28.978Z,19.70
2022-10-15T09:53:28.985Z,19.55
2022-10-15T09:54:28.990Z,19.40
2022-10-15T09:55:28.983Z,19.33
2022-10-15T09:56:28.965Z,19.27
2022-10-15T09:57:28.950Z,19.33
2022-10-15T09:58:28.952Z,19.33
2022-10-15T09:59:29.036Z,19.24
2022-10-15T10:00:29.108Z,19.21
2022-10-15T10:01:28.947Z,19.14
2022-10-15T10:02:29.679Z,19.11
2022-10-15T10:03:28.946Z,19.02
2022-10-15T10:04:28.928Z,18.95
2022-10-15T10:05:29.090Z,18.92
2022-10-15T10:06:29.123Z,18.84
2022-10-15T10:07:28.937Z,18.83
2022-10-15T10:08:28.927Z,18.92
2022-10-15T10:09:29.015Z,18.99
2022-10-15T10:10:29.080Z,18.98
2022-10-15T10:11:28.888Z,18.96
2022-10-15T10:12:28.934Z,18.90
2022-10-15T10:13:28.972Z,18.90
2022-10-15T10:14:28.885Z,19.00
2022-10-15T10:15:28.896Z,18.98
2022-10-15T10:16:28.926Z,19.11
2022-10-15T10:17:28.886Z,19.14
2022-10-15T10:18:28.885Z,19.15
2022-10-15T10:19:28.884Z,19.26
2022-10-15T10:20:28.858Z,19.24
2022-10-15T10:21:28.911Z,19.21
2022-10-15T10:22:28.915Z,19.27
2022-10-15T10:23:28.876Z,19.30
2022-10-15T10:24:28.871Z,19.29
2022-10-15T10:25:28.830Z,19.34
2022-10-15T10:26:28.981Z,19.33
2022-10-15T10:27:29.175Z,19.26
2022-10-15T10:28:28.886Z,19.31
2022-10-15T10:29:34.226Z,19.33
2022-10-15T10:30:28.806Z,19.21
2022-10-15T10:31:28.849Z,19.19
2022-10-15T10:32:28.810Z,19.18
2022-10-15T10:33:28.840Z,19.22
2022-10-15T10:34:28.807Z,19.18
2022-10-15T10:35:28.917Z,19.16
2022-10-15T10:36:28.779Z,19.16
2022-10-15T10:37:28.751Z,19.16
2022-10-15T10:38:28.775Z,19.21
2022-10-15T10:39:28.756Z,19.19
2022-10-15T10:40:28.996Z,19.19
2022-10-15T10:41:28.758Z,19.18
2022-10-15T10:42:28.816Z,19.33
2022-10-15T10:43:28.734Z,19.47
2022-10-15T10:44:28.739Z,19.52
2022-10-15T10:45:28.799Z,19.63
2022-10-15T10:46:28.730Z,19.76
2022-10-15T10:47:28.760Z,19.58
2022-10-15T10:48:28.704Z,19.67
2022-10-15T10:49:28.750Z,19.64
2022-10-15T10:50:28.871Z,19.69
2022-10-15T10:51:28.753Z,19.74
2022-10-15T10:52:28.678Z,19.76
2022-10-15T10:53:28.713Z,19.70
2022-10-15T10:54:28.764Z,19.73
2022-10-15T10:55:28.843Z,19.79
2022-10-15T10:56:28.687Z,19.82
2022-10-15T10:57:28.709Z,19.91
2022-10-15T10:58:28.698Z,19.77
2022-10-15T10:59:28.660Z,19.81
2022-10-15T11:00:28.667Z,19.89
2022-10-15T11:01:28.709Z,19.85
2022-10-15T11:02:28.681Z,19.86
2022-10-15T11:03:28.645Z,19.84
2022-10-15T11:04:28.642Z,19.77
2022-10-15T11:05:28.793Z,19.81
2022-10-15T11:06:28.640Z,19.88
2022-10-15T11:07:28.669Z,19.91
2022-10-15T11:08:28.625Z,19.91
2022-10-15T11:09:28.607Z,19.86
2022-10-15T11:10:28.770Z,20.04
2022-10-15T11:11:28.648Z,20.18
2022-10-15T11:12:28.613Z,20.24
2022-10-15T11:13:31.180Z,20.28
2022-10-15T11:14:28.614Z,20.24
2022-10-15T11:15:28.735Z,20.34
2022-10-15T11:16:28.620Z,20.22
2022-10-15T11:17:28.614Z,20.44
2022-10-15T11:18:28.597Z,20.58
2022-10-15T11:19:59.587Z,20.56
2022-10-15T11:20:41.210Z,20.51
2022-10-15T11:21:28.569Z,20.56
2022-10-15T11:22:28.797Z,20.59
2022-10-15T11:23:28.777Z,20.62
2022-10-15T11:24:33.525Z,20.62
2022-10-15T11:25:28.542Z,20.60
2022-10-15T11:26:29.739Z,20.80
2022-10-15T11:27:28.869Z,20.93
2022-10-15T11:28:28.634Z,20.95
2022-10-15T11:29:28.538Z,20.88
2022-10-15T11:30:28.729Z,20.78
2022-10-15T11:31:28.676Z,20.72
2022-10-15T11:32:42.079Z,20.70
2022-10-15T11:33:28.530Z,20.60
2022-10-15T11:34:28.505Z,20.58
2022-10-15T11:35:48.236Z,20.51
2022-10-15T11:36:28.500Z,20.41
2022-10-15T11:37:28.698Z,20.39
2022-10-15T11:38:28.698Z,20.36
2022-10-15T11:39:28.697Z,20.39
2022-10-15T11:40:28.704Z,20.39
2022-10-15T11:41:28.682Z,20.41
2022-10-15T11:42:28.457Z,20.36
2022-10-15T11:43:28.464Z,20.37
2022-10-15T11:44:28.443Z,20.31
2022-10-15T11:45:28.587Z,20.28
2022-10-15T11:46:28.469Z,20.37
2022-10-15T11:47:28.637Z,20.25
2022-10-15T11:48:28.442Z,20.36
2022-10-15T11:49:28.500Z,20.39
2022-10-15T11:50:28.532Z,20.37
2022-10-15T11:51:28.425Z,20.34
2022-10-15T11:52:28.446Z,20.37
2022-10-15T11:53:28.602Z,20.39
2022-10-15T11:54:28.412Z,20.32
2022-10-15T11:55:28.434Z,20.40
2022-10-15T11:56:28.418Z,20.39
2022-10-15T11:57:28.420Z,20.36
2022-10-15T11:58:28.641Z,20.51
2022-10-15T11:59:28.444Z,20.75
2022-10-15T12:00:28.371Z,20.92
2022-10-15T12:01:28.415Z,21.17
2022-10-15T12:02:28.414Z,21.27
2022-10-15T12:03:28.571Z,21.33
2022-10-15T12:04:31.743Z,21.42
2022-10-15T12:05:28.533Z,21.52
2022-10-15T12:06:28.364Z,21.50
2022-10-15T12:07:28.373Z,21.33
2022-10-15T12:08:28.390Z,21.35
2022-10-15T12:09:28.358Z,21.29
2022-10-15T12:10:28.509Z,21.21
2022-10-15T12:11:28.424Z,21.29
2022-10-15T12:12:28.549Z,21.24
2022-10-15T12:13:28.357Z,21.30
2022-10-15T12:14:28.367Z,21.33
2022-10-15T12:15:28.419Z,21.51
2022-10-15T12:16:28.314Z,21.51
2022-10-15T12:17:28.333Z,21.51
2022-10-15T12:18:28.350Z,21.46
2022-10-15T12:19:28.325Z,21.50
2022-10-15T12:20:28.288Z,21.45
2022-10-15T12:21:28.324Z,21.55
2022-10-15T12:22:32.863Z,21.48
2022-10-15T12:23:28.301Z,21.54
2022-10-15T12:24:28.294Z,21.55
2022-10-15T12:25:28.314Z,21.66
2022-10-15T12:26:28.283Z,21.64
2022-10-15T12:27:28.417Z,21.51
2022-10-15T12:28:28.347Z,21.40
2022-10-15T12:29:28.539Z,21.51
2022-10-15T12:30:28.424Z,21.61
2022-10-15T12:31:28.319Z,21.58
2022-10-15T12:32:28.276Z,21.50
2022-10-15T12:33:28.250Z,21.54
2022-10-15T12:34:28.256Z,21.52
2022-10-15T12:35:28.365Z,21.55
2022-10-15T12:36:28.329Z,21.51
2022-10-15T12:37:28.221Z,21.46
2022-10-15T12:38:28.216Z,21.46
2022-10-15T12:39:53.970Z,21.46
2022-10-15T12:40:28.387Z,21.33
2022-10-15T12:41:28.233Z,21.17
2022-10-15T12:42:28.227Z,21.11
2022-10-15T12:43:28.222Z,21.02
2022-10-15T12:44:28.243Z,20.96
2022-10-15T12:45:28.342Z,21.00
2022-10-15T12:46:28.196Z,20.93
2022-10-15T12:47:28.231Z,20.67
2022-10-15T12:48:28.191Z,20.75
2022-10-15T12:49:28.395Z,20.66
2022-10-15T12:50:28.195Z,20.56
2022-10-15T12:51:28.166Z,20.37
2022-10-15T12:52:28.196Z,20.48
2022-10-15T12:53:28.237Z,20.50
2022-10-15T12:54:28.174Z,20.58
2022-10-15T12:55:28.153Z,20.58